createdAt,value
2019-06-08T00:01:52.204Z,1.27
2019-06-08T00:04:22.754Z,1.20
2019-06-08T00:06:52.146Z,1.40
2019-06-08T00:09:23.875Z,1.13
2019-06-08T00:11:53.529Z,0.90
2019-06-08T00:14:23.419Z,1.00
2019-06-08T00:16:53.291Z,0.90
2019-06-08T00:19:23.694Z,0.90
2019-06-08T00:21:53.197Z,0.70
2019-06-08T00:24:41.492Z,1.00
2019-06-08T00:27:11.426Z,0.90
2019-06-08T00:29:40.698Z,1.00
2019-06-08T00:32:10.134Z,1.00
2019-06-08T00:34:39.473Z,0.90
2019-06-08T00:37:09.042Z,1.30
2019-06-08T00:39:38.807Z,3.00
2019-06-08T00:42:09.587Z,1.60
2019-06-08T00:44:39.669Z,0.80
2019-06-08T00:47:09.577Z,0.70
2019-06-08T00:49:39.457Z,0.87
2019-06-08T00:52:09.166Z,2.03
2019-06-08T00:54:39.229Z,1.30
2019-06-08T00:57:09.873Z,1.00
2019-06-08T00:59:40.440Z,1.00
2019-06-08T01:02:10.774Z,0.90
2019-06-08T01:04:40.911Z,1.07
2019-06-08T01:07:11.006Z,1.13
2019-06-08T01:09:40.659Z,1.00
2019-06-08T01:12:15.636Z,1.17
2019-06-08T01:14:46.248Z,0.80
2019-06-08T01:17:16.073Z,0.93
2019-06-08T01:19:47.726Z,0.70
2019-06-08T01:22:19.374Z,0.90
2019-06-08T01:24:49.412Z,1.00
2019-06-08T01:27:19.970Z,1.20
2019-06-08T01:29:49.959Z,0.90
2019-06-08T01:32:20.275Z,1.10
2019-06-08T01:34:50.098Z,1.00
2019-06-08T01:37:20.972Z,1.00
2019-06-08T01:39:50.918Z,0.80
2019-06-08T01:42:21.433Z,0.97
2019-06-08T01:44:51.804Z,0.87
2019-06-08T01:47:22.111Z,1.23
2019-06-08T01:49:52.128Z,1.00
2019-06-08T01:52:22.510Z,1.10
2019-06-08T01:54:52.317Z,1.20
2019-06-08T01:57:23.123Z,0.70
2019-06-08T01:59:53.640Z,0.67
2019-06-08T02:02:23.822Z,0.80
2019-06-08T02:04:53.497Z,1.20
2019-06-08T02:07:24.197Z,1.00
2019-06-08T02:09:53.899Z,0.80
2019-06-08T02:12:24.798Z,1.00
2019-06-08T02:14:54.855Z,0.80
2019-06-08T02:17:25.151Z,0.80
2019-06-08T02:19:55.883Z,0.90
2019-06-08T02:22:26.777Z,0.90
2019-06-08T02:24:57.221Z,1.40
2019-06-08T02:27:27.251Z,1.30
2019-06-08T02:29:59.629Z,1.10
2019-06-08T02:32:31.560Z,1.13
2019-06-08T02:35:01.526Z,1.10
2019-06-08T02:37:32.991Z,0.97
2019-06-08T02:40:05.674Z,0.93
2019-06-08T02:42:37.178Z,0.90
2019-06-08T02:45:07.789Z,0.70
2019-06-08T02:47:38.066Z,1.27
2019-06-08T02:50:08.800Z,0.90
2019-06-08T02:52:40.753Z,1.10
2019-06-08T02:55:12.010Z,0.90
2019-06-08T02:57:44.704Z,1.03
2019-06-08T03:00:16.620Z,1.13
2019-06-08T03:02:47.898Z,1.23
2019-06-08T03:05:20.592Z,1.00
2019-06-08T03:07:52.061Z,1.20
2019-06-08T03:10:22.426Z,0.97
2019-06-08T03:13:25.542Z,1.20
2019-06-08T03:15:33.956Z,1.17
2019-06-08T03:18:02.529Z,1.00
2019-06-08T03:20:35.746Z,1.27
2019-06-08T03:23:05.655Z,1.13
2019-06-08T03:25:44.354Z,1.20
2019-06-08T03:28:06.912Z,1.20
2019-06-08T03:30:53.013Z,1.00
2019-06-08T03:33:17.276Z,1.13
2019-06-08T03:35:55.329Z,1.30
2019-06-08T03:38:21.361Z,1.47
2019-06-08T03:40:51.196Z,1.00
2019-06-08T03:43:21.434Z,1.50
2019-06-08T03:45:51.211Z,1.40
2019-06-08T03:48:21.415Z,1.40
2019-06-08T03:50:51.608Z,2.00
2019-06-08T03:53:21.386Z,1.43
2019-06-08T03:56:00.954Z,1.00
2019-06-08T03:58:33.926Z,1.10
2019-06-08T04:01:02.551Z,1.17
2019-06-08T04:03:32.514Z,1.40
2019-06-08T04:06:09.306Z,1.63
2019-06-08T04:08:40.808Z,2.00
2019-06-08T04:11:10.962Z,1.40
2019-06-08T04:13:45.135Z,1.30
2019-06-08T04:16:16.423Z,1.67
2019-06-08T04:18:47.822Z,1.20
2019-06-08T04:21:17.890Z,1.13
2019-06-08T04:27:02.617Z,1.53
2019-06-08T04:29:33.115Z,1.03
2019-06-08T04:35:08.569Z,1.60
2019-06-08T04:37:42.670Z,1.93
2019-06-08T04:43:25.987Z,1.63
2019-06-08T04:46:22.291Z,1.67
2019-06-08T04:48:52.308Z,1.57
2019-06-08T04:51:27.318Z,1.13
2019-06-08T04:54:01.128Z,1.10
2019-06-08T04:56:59.730Z,1.10
2019-06-08T04:59:34.982Z,1.17
2019-06-08T05:02:17.438Z,1.00
2019-06-08T05:04:49.385Z,1.03
2019-06-08T05:07:20.441Z,1.33
2019-06-08T05:09:50.661Z,1.17
2019-06-08T05:12:25.038Z,1.30
2019-06-08T05:17:39.330Z,1.40
2019-06-08T05:20:12.136Z,1.20
2019-06-08T05:22:49.620Z,1.13
2019-06-08T05:25:19.426Z,1.47
2019-06-08T05:27:49.579Z,1.20
2019-06-08T05:30:20.187Z,1.30
2019-06-08T05:32:49.741Z,1.20
2019-06-08T05:35:19.528Z,1.20
2019-06-08T05:37:49.827Z,1.30
2019-06-08T05:40:19.865Z,1.20
2019-06-08T05:42:49.993Z,1.30
2019-06-08T05:45:20.426Z,1.20
2019-06-08T05:47:50.265Z,1.43
2019-06-08T05:50:20.059Z,1.30
2019-06-08T05:52:50.336Z,1.27
2019-06-08T05:55:20.375Z,1.63
2019-06-08T05:57:50.537Z,1.63
2019-06-08T06:00:20.652Z,1.20
2019-06-08T06:02:51.005Z,1.30
2019-06-08T06:05:21.087Z,1.37
2019-06-08T06:07:51.214Z,1.50
2019-06-08T06:10:20.973Z,1.13
2019-06-08T06:12:51.197Z,1.47
2019-06-08T06:15:21.887Z,1.50
2019-06-08T06:17:51.693Z,1.47
2019-06-08T06:20:21.439Z,1.67
2019-06-08T06:22:52.541Z,1.47
2019-06-08T06:25:22.577Z,1.40
2019-06-08T06:27:52.568Z,1.50
2019-06-08T06:30:22.588Z,1.40
2019-06-08T06:32:52.025Z,1.63
2019-06-08T06:35:21.425Z,1.70
2019-06-08T06:37:52.070Z,1.60
2019-06-08T06:40:21.435Z,1.60
2019-06-08T06:42:52.122Z,1.50
2019-06-08T06:45:21.683Z,1.80
2019-06-08T06:47:52.527Z,1.53
2019-06-08T06:50:22.223Z,2.20
2019-06-08T06:52:52.940Z,1.70
2019-06-08T06:55:25.205Z,1.50
2019-06-08T06:57:53.631Z,1.40
2019-06-08T07:00:31.744Z,1.20
2019-06-08T07:03:01.787Z,1.60
2019-06-08T07:05:31.152Z,1.70
2019-06-08T07:08:00.347Z,1.20
2019-06-08T07:10:29.862Z,1.57
2019-06-08T07:12:59.410Z,1.30
2019-06-08T07:15:29.749Z,1.30
2019-06-08T07:17:59.255Z,1.50
2019-06-08T07:20:28.501Z,1.37
2019-06-08T07:22:59.007Z,1.50
2019-06-08T07:25:28.680Z,1.20
2019-06-08T07:27:59.334Z,1.50
2019-06-08T07:30:28.601Z,1.43
2019-06-08T07:32:59.225Z,1.37
2019-06-08T07:35:28.693Z,1.60
2019-06-08T07:37:57.904Z,1.27
2019-06-08T07:40:27.153Z,1.60
2019-06-08T07:42:57.543Z,1.52
2019-06-08T07:45:27.153Z,1.20
2019-06-08T07:47:56.428Z,1.50
2019-06-08T07:50:26.016Z,1.67
2019-06-08T07:52:56.566Z,1.65
2019-06-08T07:55:27.463Z,1.67
2019-06-08T07:57:56.743Z,1.62
2019-06-08T08:00:25.947Z,1.30
2019-06-08T08:02:56.267Z,1.62
2019-06-08T08:05:25.602Z,1.40
2019-06-08T08:07:56.763Z,1.13
2019-06-08T08:10:26.455Z,1.20
2019-06-08T08:12:56.740Z,1.40
2019-06-08T08:15:26.258Z,1.52
2019-06-08T08:17:57.750Z,1.20
2019-06-08T08:20:27.109Z,1.53
2019-06-08T08:23:01.833Z,1.47
2019-06-08T08:25:28.140Z,1.32
2019-06-08T08:27:59.706Z,1.40
2019-06-08T08:30:29.011Z,1.33
2019-06-08T08:33:01.676Z,1.57
2019-06-08T08:35:30.010Z,1.72
2019-06-08T08:38:04.105Z,1.27
2019-06-08T08:40:31.780Z,1.50
2019-06-08T08:43:01.671Z,1.40
2019-06-08T08:45:31.064Z,1.37
2019-06-08T08:48:20.447Z,1.98
2019-06-08T08:50:31.291Z,1.70
2019-06-08T08:53:02.232Z,1.22
2019-06-08T08:55:31.474Z,1.57
2019-06-08T08:58:02.130Z,1.30
2019-06-08T09:00:32.023Z,1.20
2019-06-08T09:05:32.248Z,1.70
2019-06-08T09:08:02.614Z,1.20
2019-06-08T09:10:32.757Z,1.32
2019-06-08T09:13:04.518Z,1.53
2019-06-08T09:15:34.256Z,1.15
2019-06-08T09:18:04.981Z,1.32
2019-06-08T09:20:37.924Z,1.32
2019-06-08T09:23:14.949Z,1.37
2019-06-08T09:25:40.397Z,1.43
2019-06-08T09:28:09.114Z,1.50
2019-06-08T09:30:40.060Z,1.22
2019-06-08T09:33:09.917Z,1.35
2019-06-08T09:35:39.377Z,1.55
2019-06-08T09:38:10.955Z,1.47
2019-06-08T09:40:40.390Z,1.80
2019-06-08T09:43:13.067Z,1.80
2019-06-08T09:45:40.923Z,1.32
2019-06-08T09:48:10.188Z,1.60
2019-06-08T09:50:39.688Z,1.40
2019-06-08T09:53:23.293Z,1.30
2019-06-08T09:55:41.436Z,1.70
2019-06-08T09:58:11.768Z,1.37
2019-06-08T10:00:41.382Z,1.42
2019-06-08T10:03:10.880Z,1.30
2019-06-08T10:05:40.284Z,1.50
2019-06-08T10:08:12.681Z,1.75
2019-06-08T10:10:41.952Z,1.60
2019-06-08T10:13:11.428Z,1.42
2019-06-08T10:15:40.623Z,1.70
2019-06-08T10:18:10.362Z,1.42
2019-06-08T10:20:40.760Z,1.27
2019-06-08T10:23:27.127Z,1.20
2019-06-08T10:25:41.105Z,1.55
2019-06-08T10:28:14.185Z,1.60
2019-06-08T10:30:43.330Z,1.47
2019-06-08T10:33:13.004Z,1.45
2019-06-08T10:35:42.821Z,1.47
2019-06-08T10:38:12.272Z,1.30
2019-06-08T10:41:06.619Z,1.37
2019-06-08T10:43:30.814Z,1.47
2019-06-08T10:46:07.718Z,1.45
2019-06-08T10:48:31.716Z,1.35
2019-06-08T10:51:03.723Z,1.50
2019-06-08T10:53:44.951Z,1.30
2019-06-08T10:56:05.045Z,1.22
2019-06-08T10:58:34.204Z,1.20
2019-06-08T11:01:05.791Z,1.30
2019-06-08T11:03:34.481Z,1.25
2019-06-08T11:06:05.744Z,1.30
2019-06-08T11:08:35.160Z,1.35
2019-06-08T11:11:05.023Z,1.25
2019-06-08T11:13:35.485Z,1.20
2019-06-08T11:16:06.621Z,1.12
2019-06-08T11:18:37.704Z,1.20
2019-06-08T11:21:10.606Z,1.60
2019-06-08T11:23:41.386Z,1.30
2019-06-08T11:26:19.153Z,2.00
2019-06-08T11:28:41.072Z,1.57
2019-06-08T11:31:15.683Z,1.30
2019-06-08T11:33:42.415Z,1.40
2019-06-08T11:36:14.718Z,1.20
2019-06-08T11:38:43.157Z,1.45
2019-06-08T11:41:13.715Z,1.42
2019-06-08T11:43:43.388Z,1.70
2019-06-08T11:46:13.004Z,1.12
2019-06-08T11:48:42.409Z,2.05
2019-06-08T11:51:13.130Z,1.30
2019-06-08T11:53:42.878Z,1.22
2019-06-08T11:56:13.577Z,1.20
2019-06-08T11:58:43.779Z,1.00
2019-06-08T12:01:37.919Z,1.35
2019-06-08T12:04:11.914Z,0.93
2019-06-08T12:06:42.347Z,1.20
2019-06-08T12:09:12.729Z,1.40
2019-06-08T12:11:43.936Z,0.88
2019-06-08T12:14:14.384Z,0.90
2019-06-08T12:16:43.870Z,1.07
2019-06-08T12:19:15.761Z,1.25
2019-06-08T12:21:44.422Z,1.10
2019-06-08T12:24:14.444Z,0.98
2019-06-08T12:26:44.042Z,1.10
2019-06-08T12:29:14.573Z,1.02
2019-06-08T12:31:53.024Z,1.47
2019-06-08T12:34:24.490Z,1.20
2019-06-08T12:36:58.284Z,1.10
2019-06-08T12:39:32.177Z,1.20
2019-06-08T12:42:04.677Z,1.10
2019-06-08T12:44:38.107Z,1.10
2019-06-08T12:47:12.593Z,1.22
2019-06-08T12:49:40.417Z,1.22
2019-06-08T12:52:12.232Z,1.25
2019-06-08T12:54:56.196Z,1.30
2019-06-08T12:57:14.934Z,1.40
2019-06-08T12:59:45.437Z,1.00
2019-06-08T13:02:17.461Z,1.27
2019-06-08T13:04:45.388Z,1.10
2019-06-08T13:07:14.874Z,1.37
2019-06-08T13:09:44.369Z,1.20
2019-06-08T13:12:13.741Z,1.02
2019-06-08T13:14:43.296Z,1.10
2019-06-08T13:17:14.619Z,1.00
2019-06-08T13:19:44.382Z,1.32
2019-06-08T13:22:14.862Z,1.37
2019-06-08T13:24:44.546Z,1.30
2019-06-08T13:27:15.416Z,1.30
2019-06-08T13:29:45.120Z,1.22
2019-06-08T13:32:14.391Z,0.98
2019-06-08T13:34:43.692Z,0.90
2019-06-08T13:37:13.055Z,1.62
2019-06-08T13:39:42.375Z,1.35
2019-06-08T13:42:11.584Z,1.30
2019-06-08T13:44:40.864Z,1.42
2019-06-08T13:47:11.123Z,1.15
2019-06-08T13:49:41.523Z,1.25
2019-06-08T13:52:10.756Z,1.62
2019-06-08T13:54:39.947Z,1.62
2019-06-08T13:57:09.252Z,1.22
2019-06-08T13:59:38.994Z,1.20
2019-06-08T14:02:09.219Z,1.35
2019-06-08T14:04:39.742Z,1.47
2019-06-08T14:07:09.157Z,1.20
2019-06-08T14:09:40.656Z,1.25
2019-06-08T14:12:09.982Z,1.40
2019-06-08T14:14:39.960Z,1.25
2019-06-08T14:17:09.333Z,1.00
2019-06-08T14:19:38.882Z,1.20
2019-06-08T14:22:10.624Z,1.70
2019-06-08T14:24:39.478Z,1.30
2019-06-08T14:27:09.039Z,1.40
2019-06-08T14:29:38.287Z,1.40
2019-06-08T14:32:08.432Z,1.45
2019-06-08T14:34:38.641Z,1.42
2019-06-08T14:37:08.615Z,1.15
2019-06-08T14:39:38.058Z,0.90
2019-06-08T14:42:10.984Z,1.00
2019-06-08T14:44:40.672Z,1.20
2019-06-08T14:47:15.987Z,0.90
2019-06-08T14:49:48.796Z,1.20
2019-06-08T14:52:19.351Z,1.27
2019-06-08T14:54:51.258Z,1.20
2019-06-08T14:57:21.269Z,1.00
2019-06-08T14:59:57.240Z,1.00
2019-06-08T15:02:28.590Z,1.20
2019-06-08T15:04:58.721Z,1.35
2019-06-08T15:07:31.360Z,1.87
2019-06-08T15:09:59.686Z,0.80
2019-06-08T15:12:31.416Z,1.32
2019-06-08T15:15:03.813Z,1.32
2019-06-08T15:17:35.278Z,1.10
2019-06-08T15:20:05.783Z,1.90
2019-06-08T15:22:35.965Z,1.17
2019-06-08T15:25:08.226Z,1.00
2019-06-08T15:27:38.954Z,1.30
2019-06-08T15:30:08.447Z,1.17
2019-06-08T15:32:38.737Z,1.10
2019-06-08T15:35:08.914Z,1.05
2019-06-08T15:37:40.940Z,1.20
2019-06-08T15:40:09.336Z,1.10
2019-06-08T15:42:38.651Z,1.30
2019-06-08T15:45:08.770Z,1.20
2019-06-08T15:47:40.545Z,1.05
2019-06-08T15:50:09.603Z,1.32
2019-06-08T15:52:39.191Z,2.60
2019-06-08T15:55:11.333Z,1.57
2019-06-08T15:57:41.126Z,1.20
2019-06-08T16:00:11.724Z,1.40
2019-06-08T16:02:41.395Z,1.17
2019-06-08T16:05:10.812Z,0.93
2019-06-08T16:07:40.007Z,1.35
2019-06-08T16:10:09.911Z,0.85
2019-06-08T16:12:39.183Z,1.10
2019-06-08T16:15:08.548Z,1.22
2019-06-08T16:17:37.792Z,1.25
2019-06-08T16:20:07.624Z,1.20
2019-06-08T16:22:36.906Z,1.50
2019-06-08T16:25:06.258Z,1.42
2019-06-08T16:27:35.977Z,1.47
2019-06-08T16:30:09.435Z,1.30
2019-06-08T16:32:37.422Z,1.57
2019-06-08T16:35:07.550Z,1.30
2019-06-08T16:37:36.850Z,1.65
2019-06-08T16:40:06.992Z,1.10
2019-06-08T16:42:36.924Z,1.15
2019-06-08T16:45:06.895Z,1.10
2019-06-08T16:47:36.503Z,0.98
2019-06-08T16:50:06.059Z,1.22
2019-06-08T16:52:36.670Z,1.10
2019-06-08T16:55:06.645Z,1.05
2019-06-08T16:57:38.295Z,1.20
2019-06-08T17:02:39.417Z,1.32
2019-06-08T17:05:09.286Z,1.10
2019-06-08T17:07:39.753Z,1.10
2019-06-08T17:10:10.311Z,1.10
2019-06-08T17:12:39.580Z,1.12
2019-06-08T17:15:09.219Z,0.95
2019-06-08T17:17:38.635Z,1.10
2019-06-08T17:20:08.879Z,1.20
2019-06-08T17:22:39.075Z,1.50
2019-06-08T17:25:08.631Z,1.20
2019-06-08T17:27:38.979Z,1.20
2019-06-08T17:30:08.943Z,1.20
2019-06-08T17:32:38.631Z,1.25
2019-06-08T17:35:09.423Z,0.95
2019-06-08T17:37:39.959Z,1.10
2019-06-08T17:40:09.873Z,1.00
2019-06-08T17:42:39.634Z,1.17
2019-06-08T17:45:09.467Z,0.98
2019-06-08T17:47:38.704Z,1.20
2019-06-08T17:50:08.409Z,1.52
2019-06-08T17:52:38.792Z,2.08
2019-06-08T17:55:08.829Z,2.08
2019-06-08T17:57:48.477Z,1.17
2019-06-08T18:00:10.888Z,1.50
2019-06-08T18:02:43.382Z,1.45
2019-06-08T18:05:11.995Z,1.47
2019-06-08T18:07:43.570Z,1.30
2019-06-08T18:10:12.700Z,1.32
2019-06-08T18:12:44.366Z,1.35
2019-06-08T18:15:14.398Z,1.10
2019-06-08T18:17:45.046Z,1.42
2019-06-08T18:20:17.800Z,1.30
2019-06-08T18:22:49.055Z,1.20
2019-06-08T18:25:17.606Z,1.20
2019-06-08T18:28:05.479Z,0.90
2019-06-08T18:30:20.438Z,1.30
2019-06-08T18:32:50.046Z,1.45
2019-06-08T18:35:20.263Z,1.72
2019-06-08T18:37:50.765Z,1.10
2019-06-08T18:40:20.370Z,1.22
2019-06-08T18:42:49.959Z,1.20
2019-06-08T18:45:20.338Z,1.77
2019-06-08T18:47:50.294Z,1.40
2019-06-08T18:50:19.917Z,1.20
2019-06-08T18:52:49.873Z,1.12
2019-06-08T18:55:19.212Z,1.37
2019-06-08T18:57:49.319Z,1.37
2019-06-08T19:00:22.347Z,1.50
2019-06-08T19:02:54.531Z,1.55
2019-06-08T19:05:24.302Z,1.35
2019-06-08T19:07:53.610Z,1.40
2019-06-08T19:10:33.713Z,1.40
2019-06-08T19:13:04.415Z,1.80
2019-06-08T19:15:39.831Z,1.40
2019-06-08T19:18:08.506Z,1.70
2019-06-08T19:20:43.109Z,1.67
2019-06-08T19:23:10.034Z,2.08
2019-06-08T19:25:42.641Z,1.22
2019-06-08T19:28:10.539Z,1.20
2019-06-08T19:30:43.591Z,1.45
2019-06-08T19:33:12.375Z,1.50
2019-06-08T19:35:42.378Z,1.30
2019-06-08T19:38:12.120Z,1.77
2019-06-08T19:40:44.082Z,1.60
2019-06-08T19:43:14.949Z,1.93
2019-06-08T19:45:46.446Z,1.40
2019-06-08T19:48:17.525Z,1.40
2019-06-08T19:50:47.316Z,1.77
2019-06-08T19:53:24.875Z,1.67
2019-06-08T19:55:54.331Z,1.65
2019-06-08T19:58:28.164Z,3.30
2019-06-08T20:00:59.198Z,2.10
2019-06-08T20:03:28.872Z,2.22
2019-06-08T20:05:58.438Z,2.10
2019-06-08T20:08:28.636Z,2.05
2019-06-08T20:11:00.882Z,1.80
2019-06-08T20:13:30.314Z,1.87
2019-06-08T20:16:02.203Z,1.80
2019-06-08T20:18:30.853Z,1.60
2019-06-08T20:21:00.633Z,1.80
2019-06-08T20:23:30.314Z,1.75
2019-06-08T20:26:00.822Z,1.40
2019-06-08T20:28:31.194Z,1.80
2019-06-08T20:31:01.154Z,2.02
2019-06-08T20:33:30.765Z,2.17
2019-06-08T20:36:00.426Z,1.80
2019-06-08T20:38:38.401Z,1.90
2019-06-08T20:41:03.376Z,2.33
2019-06-08T20:43:32.733Z,2.22
2019-06-08T20:46:03.137Z,2.60
2019-06-08T20:48:32.630Z,2.85
2019-06-08T20:51:02.247Z,4.30
2019-06-08T20:53:31.935Z,2.55
2019-06-08T20:56:01.906Z,3.70
2019-06-08T20:58:32.751Z,3.37
2019-06-08T21:01:03.665Z,3.00
2019-06-08T21:03:33.900Z,3.45
2019-06-08T21:06:04.064Z,5.17
2019-06-08T21:08:37.256Z,3.50
2019-06-08T21:11:08.510Z,2.70
2019-06-08T21:13:38.874Z,2.80
2019-06-08T21:16:10.241Z,2.83
2019-06-08T21:18:40.405Z,3.37
2019-06-08T21:21:09.607Z,3.12
2019-06-08T21:23:39.445Z,4.17
2019-06-08T21:26:09.139Z,3.77
2019-06-08T21:28:38.913Z,2.65
2019-06-08T21:31:09.073Z,4.53
2019-06-08T21:33:39.373Z,2.13
2019-06-08T21:36:18.035Z,2.30
2019-06-08T21:38:50.302Z,2.62
2019-06-08T21:41:18.360Z,3.60
2019-06-08T21:43:53.050Z,3.00
2019-06-08T21:46:21.602Z,2.87
2019-06-08T21:48:54.483Z,3.40
2019-06-08T21:51:26.169Z,3.20
2019-06-08T21:53:58.741Z,3.25
2019-06-08T21:56:27.637Z,3.17
2019-06-08T21:58:59.681Z,4.80
2019-06-08T22:01:32.880Z,4.70
2019-06-08T22:04:03.863Z,6.22
2019-06-08T22:06:34.271Z,5.45
2019-06-08T22:09:06.980Z,5.65
2019-06-08T22:11:37.600Z,4.55
2019-06-08T22:14:08.308Z,4.85
2019-06-08T22:16:38.246Z,3.33
2019-06-08T22:19:08.378Z,3.93
2019-06-08T22:21:40.089Z,3.92
2019-06-08T22:24:10.603Z,3.07
2019-06-08T22:26:39.971Z,3.50
2019-06-08T22:29:10.495Z,3.70
2019-06-08T22:31:40.327Z,3.50
2019-06-08T22:34:09.692Z,3.83
2019-06-08T22:36:39.160Z,2.90
2019-06-08T22:39:08.590Z,4.30
2019-06-08T22:41:39.220Z,8.00
2019-06-08T22:44:08.775Z,4.07
2019-06-08T22:46:38.192Z,4.50
2019-06-08T22:49:08.680Z,3.33
2019-06-08T22:51:38.462Z,3.47
2019-06-08T22:54:08.105Z,3.10
2019-06-08T22:56:37.481Z,3.07
2019-06-08T22:59:09.180Z,3.53
2019-06-08T23:01:39.180Z,3.60
2019-06-08T23:04:09.079Z,4.13
2019-06-08T23:06:38.763Z,3.83
2019-06-08T23:09:09.817Z,4.10
2019-06-08T23:11:39.456Z,4.10
2019-06-08T23:14:13.041Z,4.03
2019-06-08T23:16:40.387Z,3.67
2019-06-08T23:19:10.061Z,4.60
2019-06-08T23:21:39.625Z,3.60
2019-06-08T23:24:08.967Z,3.90
2019-06-08T23:26:38.327Z,4.30
2019-06-08T23:29:09.541Z,3.90
2019-06-08T23:31:38.837Z,4.10
2019-06-08T23:34:11.106Z,3.60
2019-06-08T23:36:51.648Z,4.00
2019-06-08T23:39:11.167Z,3.93
2019-06-08T23:41:40.523Z,4.40
2019-06-08T23:44:10.399Z,3.67
2019-06-08T23:46:40.055Z,3.50
2019-06-08T23:49:10.027Z,4.07
2019-06-08T23:51:39.450Z,3.43
2019-06-08T23:54:10.482Z,3.33
2019-06-08T23:56:40.184Z,3.60
2019-06-08T23:59:09.796Z,3.43
